createdAt,value
2023-03-20T00:02:49.577Z,59.89
2023-03-20T00:07:53.885Z,59.30
2023-03-20T00:12:58.249Z,59.63
2023-03-20T00:18:02.159Z,59.70
2023-03-20T00:23:06.290Z,59.78
2023-03-20T00:28:33.444Z,59.46
2023-03-20T00:33:38.963Z,59.59
2023-03-20T00:38:42.767Z,60.00
2023-03-20T00:43:48.903Z,60.00
2023-03-20T00:48:53.363Z,60.06
2023-03-20T00:53:57.407Z,59.99
2023-03-20T00:59:03.325Z,59.43
2023-03-20T01:04:19.020Z,59.69
2023-03-20T01:09:22.753Z,60.13
2023-03-20T01:14:27.255Z,59.95
2023-03-20T01:19:31.108Z,60.06
2023-03-20T01:24:35.126Z,59.43
2023-03-20T01:29:39.313Z,59.67
2023-03-20T01:34:44.100Z,59.74
2023-03-20T01:39:48.165Z,59.55
2023-03-20T01:44:53.725Z,59.41
2023-03-20T01:50:23.184Z,59.20
2023-03-20T01:55:32.696Z,59.50
2023-03-20T02:00:37.943Z,59.14
2023-03-20T02:05:47.824Z,59.03
2023-03-20T02:10:51.933Z,59.12
2023-03-20T02:16:13.468Z,59.47
2023-03-20T02:21:52.037Z,58.97
2023-03-20T02:27:05.236Z,59.28
2023-03-20T02:32:42.724Z,59.43
2023-03-20T02:38:23.295Z,58.88
2023-03-20T02:43:44.600Z,59.31
2023-03-20T02:49:01.628Z,59.08
2023-03-20T02:54:44.825Z,58.51
2023-03-20T03:00:05.969Z,58.57
2023-03-20T03:05:25.540Z,59.02
2023-03-20T03:10:49.030Z,59.17
2023-03-20T03:15:57.392Z,59.31
2023-03-20T03:21:04.826Z,59.43
2023-03-20T03:26:23.790Z,59.63
2023-03-20T03:31:33.738Z,59.53
2023-03-20T03:37:08.369Z,58.92
2023-03-20T03:42:28.886Z,58.62
2023-03-20T03:47:51.273Z,58.01
2023-03-20T03:53:01.004Z,58.33
2023-03-20T03:58:49.438Z,57.38
2023-03-20T04:03:58.621Z,56.21
2023-03-20T04:09:02.538Z,55.48
2023-03-20T04:14:07.171Z,55.93
2023-03-20T04:19:11.203Z,54.88
2023-03-20T04:24:16.228Z,54.79
2023-03-20T04:29:20.412Z,54.56
2023-03-20T04:34:38.266Z,54.78
2023-03-20T04:40:03.483Z,55.16
2023-03-20T04:45:09.100Z,54.97
2023-03-20T04:50:15.091Z,54.20
2023-03-20T04:55:19.996Z,53.34
2023-03-20T05:00:23.996Z,53.59
2023-03-20T05:05:28.064Z,52.98
2023-03-20T05:10:32.535Z,53.03
2023-03-20T05:15:43.992Z,52.48
2023-03-20T05:20:59.680Z,52.76
2023-03-20T05:26:26.032Z,53.14
2023-03-20T05:31:56.372Z,54.20
2023-03-20T05:37:20.619Z,54.13
2023-03-20T05:42:44.065Z,54.91
2023-03-20T05:48:06.948Z,54.10
2023-03-20T05:53:25.722Z,53.64
2023-03-20T05:59:08.209Z,54.31
2023-03-20T06:04:38.287Z,53.90
2023-03-20T06:10:00.907Z,53.79
2023-03-20T06:15:07.268Z,53.14
2023-03-20T06:20:16.279Z,52.62
2023-03-20T06:25:21.938Z,52.09
2023-03-20T06:30:27.154Z,52.84
2023-03-20T06:35:32.655Z,53.35
2023-03-20T06:40:36.958Z,54.09
2023-03-20T06:45:41.345Z,53.69
2023-03-20T06:50:54.849Z,53.27
2023-03-20T06:56:03.823Z,53.22
2023-03-20T07:01:11.483Z,51.75
2023-03-20T07:06:16.018Z,49.88
2023-03-20T07:11:20.340Z,50.64
2023-03-20T07:16:25.287Z,50.75
2023-03-20T07:21:30.618Z,50.96
2023-03-20T07:26:36.325Z,50.05
2023-03-20T07:31:40.603Z,49.19
2023-03-20T07:36:52.612Z,49.58
2023-03-20T07:41:58.706Z,48.40
2023-03-20T07:47:14.568Z,48.24
2023-03-20T07:52:18.640Z,47.95
2023-03-20T07:57:22.662Z,46.79
2023-03-20T08:02:26.727Z,46.74
2023-03-20T08:07:30.798Z,46.78
2023-03-20T08:12:34.790Z,46.75
2023-03-20T08:17:38.945Z,45.82
2023-03-20T08:22:43.491Z,45.56
2023-03-20T08:27:47.477Z,46.02
2023-03-20T08:32:51.640Z,45.68
2023-03-20T08:37:55.642Z,45.69
2023-03-20T08:42:59.933Z,46.00
2023-03-20T08:48:04.477Z,46.06
2023-03-20T08:53:08.822Z,46.47
2023-03-20T08:58:12.572Z,46.38
2023-03-20T09:03:19.618Z,46.30
2023-03-20T09:08:23.458Z,46.60
2023-03-20T09:13:28.131Z,46.76
2023-03-20T09:18:32.075Z,46.83
2023-03-20T09:23:36.083Z,46.91
2023-03-20T09:28:40.168Z,46.57
2023-03-20T09:33:44.263Z,46.55
2023-03-20T09:38:49.296Z,46.18
2023-03-20T09:44:10.300Z,45.93
2023-03-20T09:49:34.588Z,45.63
2023-03-20T09:54:53.548Z,45.68
2023-03-20T10:00:11.336Z,45.28
2023-03-20T10:05:26.900Z,45.45
2023-03-20T10:11:03.160Z,45.17
2023-03-20T10:16:13.602Z,45.37
2023-03-20T10:21:50.187Z,45.53
2023-03-20T10:26:56.587Z,45.40
2023-03-20T10:32:45.065Z,45.32
2023-03-20T10:38:01.125Z,45.76
2023-03-20T10:43:17.552Z,45.86
2023-03-20T10:48:36.830Z,46.15
2023-03-20T10:54:05.025Z,45.96
2023-03-20T10:59:29.333Z,45.78
2023-03-20T11:04:33.315Z,46.32
2023-03-20T11:09:37.448Z,46.01
2023-03-20T11:14:41.396Z,46.02
2023-03-20T11:19:45.467Z,45.93
2023-03-20T11:24:55.189Z,45.58
2023-03-20T11:30:02.144Z,45.69
2023-03-20T11:35:32.283Z,45.78
2023-03-20T11:40:37.161Z,45.88
2023-03-20T11:45:43.378Z,45.82
2023-03-20T11:51:01.879Z,46.11
2023-03-20T11:56:14.036Z,46.17
2023-03-20T12:01:18.221Z,46.39
2023-03-20T12:06:54.424Z,46.77
2023-03-20T12:12:06.087Z,46.72
2023-03-20T12:17:40.556Z,46.95
2023-03-20T12:23:11.763Z,47.13
2023-03-20T12:28:27.139Z,47.60
2023-03-20T12:34:07.970Z,48.02
2023-03-20T12:39:30.324Z,47.86
2023-03-20T12:44:52.388Z,48.30
2023-03-20T12:50:21.224Z,48.39
2023-03-20T12:55:40.194Z,48.71
2023-03-20T13:00:53.383Z,49.05
2023-03-20T13:06:37.022Z,49.50
2023-03-20T13:12:09.340Z,49.71
2023-03-20T13:17:40.254Z,50.17
2023-03-20T13:23:15.146Z,50.62
2023-03-20T13:28:37.126Z,51.23
2023-03-20T13:33:55.979Z,51.29
2023-03-20T13:39:14.849Z,51.77
2023-03-20T13:44:21.806Z,51.88
2023-03-20T13:49:53.002Z,52.20
2023-03-20T13:54:59.616Z,52.56
2023-03-20T14:00:29.404Z,52.50
2023-03-20T14:05:42.621Z,52.62
2023-03-20T14:10:46.530Z,52.91
2023-03-20T14:15:56.275Z,53.27
2023-03-20T14:21:12.383Z,53.15
2023-03-20T14:26:22.142Z,52.90
2023-03-20T14:31:33.860Z,53.40
2023-03-20T14:37:01.008Z,53.66
2023-03-20T14:42:37.847Z,53.71
2023-03-20T14:47:50.275Z,53.41
2023-03-20T14:53:22.250Z,54.02
2023-03-20T14:58:31.816Z,53.80
2023-03-20T15:03:41.431Z,54.33
2023-03-20T15:08:51.061Z,54.48
2023-03-20T15:13:56.803Z,54.71
2023-03-20T15:19:01.970Z,54.20
2023-03-20T15:24:08.398Z,54.76
2023-03-20T15:29:16.183Z,55.00
2023-03-20T15:34:24.148Z,54.90
2023-03-20T15:39:30.703Z,54.89
2023-03-20T15:44:43.681Z,55.30
2023-03-20T15:49:52.821Z,55.15
2023-03-20T15:54:59.254Z,55.38
2023-03-20T16:00:08.823Z,55.79
2023-03-20T16:05:17.387Z,55.84
2023-03-20T16:10:21.490Z,55.39
2023-03-20T16:15:28.484Z,56.02
2023-03-20T16:20:39.869Z,56.02
2023-03-20T16:25:43.704Z,55.59
2023-03-20T16:30:47.911Z,56.40
2023-03-20T16:35:52.616Z,56.32
2023-03-20T16:41:32.872Z,56.11
2023-03-20T16:46:36.828Z,56.21
2023-03-20T16:51:45.083Z,56.49
2023-03-20T16:56:55.131Z,56.54
2023-03-20T17:02:02.380Z,56.96
2023-03-20T17:07:26.251Z,56.68
2023-03-20T17:12:33.626Z,56.80
2023-03-20T17:17:38.703Z,56.94
2023-03-20T17:22:42.656Z,56.66
2023-03-20T17:27:47.050Z,56.97
2023-03-20T17:32:51.238Z,57.10
2023-03-20T17:37:55.045Z,57.11
2023-03-20T17:42:58.943Z,57.18
2023-03-20T17:48:02.746Z,57.42
2023-03-20T17:53:06.835Z,57.04
2023-03-20T17:58:23.352Z,57.04
2023-03-20T18:03:27.624Z,57.11
2023-03-20T18:08:32.113Z,57.04
2023-03-20T18:13:35.962Z,57.18
2023-03-20T18:18:40.032Z,57.44
2023-03-20T18:23:44.965Z,57.61
2023-03-20T18:28:52.125Z,57.68
2023-03-20T18:33:55.986Z,57.57
2023-03-20T18:39:00.209Z,57.53
2023-03-20T18:44:03.999Z,57.58
2023-03-20T18:49:08.087Z,57.43
2023-03-20T18:54:12.380Z,57.38
2023-03-20T18:59:16.859Z,57.51
2023-03-20T19:04:21.029Z,57.60
2023-03-20T19:09:25.094Z,57.76
2023-03-20T19:14:29.001Z,57.77
2023-03-20T19:19:32.878Z,57.91
2023-03-20T19:24:37.078Z,57.83
2023-03-20T19:29:41.341Z,57.34
2023-03-20T19:35:35.292Z,57.57
2023-03-20T19:40:26.378Z,57.66
2023-03-20T19:45:34.381Z,57.96
2023-03-20T19:50:41.676Z,57.61
2023-03-20T19:55:48.083Z,57.79
2023-03-20T20:00:57.839Z,58.02
2023-03-20T20:06:04.682Z,58.24
2023-03-20T20:11:10.557Z,58.13
2023-03-20T20:16:14.364Z,57.93
2023-03-20T20:26:53.311Z,57.93
2023-03-20T20:31:59.983Z,58.09
2023-03-20T20:42:27.785Z,58.61
2023-03-20T20:47:32.636Z,59.07
2023-03-20T20:52:40.945Z,59.14
2023-03-20T20:57:46.253Z,59.25
2023-03-20T21:02:50.572Z,59.49
2023-03-20T21:07:54.687Z,59.46
2023-03-20T21:12:59.983Z,59.99
2023-03-20T21:18:03.899Z,60.29
2023-03-20T21:23:08.483Z,60.72
2023-03-20T21:28:13.195Z,60.90
2023-03-20T21:33:17.108Z,61.04
2023-03-20T21:43:48.177Z,61.83
2023-03-20T21:49:47.801Z,61.83
2023-03-20T22:16:36.648Z,62.96
2023-03-20T22:21:55.979Z,63.23
2023-03-20T22:38:17.190Z,63.56
2023-03-20T22:43:26.538Z,63.68
2023-03-20T22:48:16.503Z,63.56
2023-03-20T22:53:20.716Z,63.98
2023-03-20T22:58:24.626Z,64.09
2023-03-20T23:03:42.513Z,64.10
2023-03-20T23:08:52.348Z,64.30
2023-03-20T23:13:59.516Z,64.34
2023-03-20T23:19:03.342Z,64.33
2023-03-20T23:24:07.643Z,64.75
2023-03-20T23:29:12.553Z,64.68
2023-03-20T23:34:18.104Z,64.77
2023-03-20T23:39:22.457Z,64.72
2023-03-20T23:44:26.780Z,64.93
2023-03-20T23:49:31.069Z,64.75
2023-03-20T23:54:34.836Z,64.98
2023-03-20T23:59:39.018Z,65.01
